sensor_id;sensor_type;location;lat;lon;timestamp;pressure;altitude;pressure_sealevel;temperature;humidity
4346;BME280;2186;49.866;7.986;2023-09-12T00:02:12;99824.91;;;19.38;98.24
4346;BME280;2186;49.866;7.986;2023-09-12T00:04:38;99815.75;;;19.15;99.33
4346;BME280;2186;49.866;7.986;2023-09-12T00:07:05;99813.94;;;18.90;100.00
4346;BME280;2186;49.866;7.986;2023-09-12T00:09:31;99806.19;;;18.98;100.00
4346;BME280;2186;49.866;7.986;2023-09-12T00:11:57;99808.38;;;18.80;100.00
4346;BME280;2186;49.866;7.986;2023-09-12T00:14:24;99802.53;;;18.99;100.00
4346;BME280;2186;49.866;7.986;2023-09-12T00:16:50;99801.84;;;19.34;100.00
4346;BME280;2186;49.866;7.986;2023-09-12T00:19:19;99806.75;;;19.52;99.70
4346;BME280;2186;49.866;7.986;2023-09-12T00:21:45;99805.88;;;19.52;99.06
4346;BME280;2186;49.866;7.986;2023-09-12T00:24:12;99801.56;;;19.62;98.61
4346;BME280;2186;49.866;7.986;2023-09-12T00:26:38;99791.53;;;19.64;98.62
4346;BME280;2186;49.866;7.986;2023-09-12T00:29:04;99793.25;;;19.65;99.45
4346;BME280;2186;49.866;7.986;2023-09-12T00:31:31;99786.47;;;19.60;99.52
4346;BME280;2186;49.866;7.986;2023-09-12T00:33:57;99788.84;;;19.64;99.46
4346;BME280;2186;49.866;7.986;2023-09-12T00:36:24;99799.50;;;19.66;99.22
4346;BME280;2186;49.866;7.986;2023-09-12T00:38:50;99806.28;;;19.71;98.97
4346;BME280;2186;49.866;7.986;2023-09-12T00:41:17;99798.59;;;19.78;98.66
4346;BME280;2186;49.866;7.986;2023-09-12T00:43:44;99794.84;;;19.68;98.56
4346;BME280;2186;49.866;7.986;2023-09-12T00:46:10;99796.13;;;19.75;98.39
4346;BME280;2186;49.866;7.986;2023-09-12T00:48:37;99793.53;;;19.97;97.42
4346;BME280;2186;49.866;7.986;2023-09-12T00:51:05;99791.13;;;19.81;98.38
4346;BME280;2186;49.866;7.986;2023-09-12T00:53:32;99790.09;;;19.71;98.87
4346;BME280;2186;49.866;7.986;2023-09-12T00:55:59;99792.75;;;19.60;99.29
4346;BME280;2186;49.866;7.986;2023-09-12T00:58:26;99788.50;;;19.19;100.00
4346;BME280;2186;49.866;7.986;2023-09-12T01:00:53;99775.47;;;19.13;100.00
4346;BME280;2186;49.866;7.986;2023-09-12T01:03:20;99778.03;;;19.15;100.00
4346;BME280;2186;49.866;7.986;2023-09-12T01:05:47;99784.72;;;19.22;100.00
4346;BME280;2186;49.866;7.986;2023-09-12T01:08:13;99785.88;;;19.31;100.00
4346;BME280;2186;49.866;7.986;2023-09-12T01:10:40;99776.28;;;19.27;100.00
4346;BME280;2186;49.866;7.986;2023-09-12T01:13:16;99779.88;;;19.14;100.00
4346;BME280;2186;49.866;7.986;2023-09-12T01:15:43;99770.53;;;18.94;100.00
4346;BME280;2186;49.866;7.986;2023-09-12T01:18:10;99782.28;;;19.06;100.00
4346;BME280;2186;49.866;7.986;2023-09-12T01:20:39;99787.53;;;19.20;100.00
4346;BME280;2186;49.866;7.986;2023-09-12T01:23:22;99785.97;;;19.29;100.00
4346;BME280;2186;49.866;7.986;2023-09-12T01:28:54;99788.94;;;19.13;100.00
4346;BME280;2186;49.866;7.986;2023-09-12T01:31:22;99789.59;;;19.04;100.00
4346;BME280;2186;49.866;7.986;2023-09-12T01:33:54;99780.34;;;18.96;100.00
4346;BME280;2186;49.866;7.986;2023-09-12T01:36:21;99775.69;;;18.98;100.00
4346;BME280;2186;49.866;7.986;2023-09-12T01:38:48;99775.47;;;19.01;100.00
4346;BME280;2186;49.866;7.986;2023-09-12T01:41:14;99767.38;;;19.13;100.00
4346;BME280;2186;49.866;7.986;2023-09-12T01:43:41;99769.56;;;19.08;100.00
4346;BME280;2186;49.866;7.986;2023-09-12T01:46:09;99760.41;;;18.98;100.00
4346;BME280;2186;49.866;7.986;2023-09-12T01:48:36;99762.25;;;18.85;100.00
4346;BME280;2186;49.866;7.986;2023-09-12T01:51:04;99762.63;;;19.17;100.00
4346;BME280;2186;49.866;7.986;2023-09-12T01:53:33;99765.38;;;19.41;100.00
4346;BME280;2186;49.866;7.986;2023-09-12T01:56:00;99757.03;;;19.44;100.00
4346;BME280;2186;49.866;7.986;2023-09-12T01:58:28;99750.91;;;19.42;100.00
4346;BME280;2186;49.866;7.986;2023-09-12T02:00:55;99742.03;;;19.52;100.00
4346;BME280;2186;49.866;7.986;2023-09-12T02:03:21;99749.91;;;19.56;100.00
4346;BME280;2186;49.866;7.986;2023-09-12T02:05:48;99752.28;;;19.60;100.00
4346;BME280;2186;49.866;7.986;2023-09-12T02:08:14;99757.09;;;19.68;100.00
4346;BME280;2186;49.866;7.986;2023-09-12T02:10:41;99751.03;;;19.77;100.00
4346;BME280;2186;49.866;7.986;2023-09-12T02:13:07;99745.97;;;19.72;100.00
4346;BME280;2186;49.866;7.986;2023-09-12T02:15:33;99741.28;;;19.50;100.00
4346;BME280;2186;49.866;7.986;2023-09-12T02:18:00;99755.31;;;19.56;100.00
4346;BME280;2186;49.866;7.986;2023-09-12T02:20:27;99762.25;;;19.71;100.00
4346;BME280;2186;49.866;7.986;2023-09-12T02:22:53;99766.00;;;19.81;100.00
4346;BME280;2186;49.866;7.986;2023-09-12T02:25:19;99766.56;;;19.73;99.68
4346;BME280;2186;49.866;7.986;2023-09-12T02:27:46;99777.41;;;19.85;99.15
4346;BME280;2186;49.866;7.986;2023-09-12T02:30:12;99779.47;;;19.81;99.11
4346;BME280;2186;49.866;7.986;2023-09-12T02:32:41;99778.13;;;19.75;99.73
4346;BME280;2186;49.866;7.986;2023-09-12T02:35:08;99772.13;;;19.83;99.74
4346;BME280;2186;49.866;7.986;2023-09-12T02:37:35;99780.88;;;19.63;100.00
4346;BME280;2186;49.866;7.986;2023-09-12T02:40:02;99788.34;;;19.46;100.00
4346;BME280;2186;49.866;7.986;2023-09-12T02:42:30;99780.00;;;19.49;100.00
4346;BME280;2186;49.866;7.986;2023-09-12T02:44:56;99774.63;;;19.00;100.00
4346;BME280;2186;49.866;7.986;2023-09-12T02:47:23;99771.63;;;18.92;100.00
4346;BME280;2186;49.866;7.986;2023-09-12T02:49:49;99768.81;;;19.06;100.00
4346;BME280;2186;49.866;7.986;2023-09-12T02:52:16;99768.25;;;19.01;100.00
4346;BME280;2186;49.866;7.986;2023-09-12T02:54:42;99764.06;;;18.97;100.00
4346;BME280;2186;49.866;7.986;2023-09-12T02:57:09;99765.78;;;18.98;100.00
4346;BME280;2186;49.866;7.986;2023-09-12T02:59:36;99759.66;;;18.83;100.00
4346;BME280;2186;49.866;7.986;2023-09-12T03:02:02;99760.94;;;18.90;100.00
4346;BME280;2186;49.866;7.986;2023-09-12T03:04:30;99757.81;;;18.97;100.00
4346;BME280;2186;49.866;7.986;2023-09-12T03:06:56;99756.81;;;19.10;100.00
4346;BME280;2186;49.866;7.986;2023-09-12T03:09:23;99753.94;;;19.01;100.00
4346;BME280;2186;49.866;7.986;2023-09-12T03:11:50;99751.94;;;18.79;100.00
4346;BME280;2186;49.866;7.986;2023-09-12T03:14:16;99750.28;;;18.76;100.00
4346;BME280;2186;49.866;7.986;2023-09-12T03:16:43;99745.75;;;18.77;100.00
4346;BME280;2186;49.866;7.986;2023-09-12T03:19:09;99741.66;;;18.58;100.00
4346;BME280;2186;49.866;7.986;2023-09-12T03:21:36;99739.63;;;18.75;100.00
4346;BME280;2186;49.866;7.986;2023-09-12T03:24:02;99747.28;;;18.68;100.00
4346;BME280;2186;49.866;7.986;2023-09-12T03:26:29;99739.72;;;18.60;100.00
4346;BME280;2186;49.866;7.986;2023-09-12T03:28:55;99740.72;;;18.72;100.00
4346;BME280;2186;49.866;7.986;2023-09-12T03:31:22;99739.81;;;18.97;100.00
4346;BME280;2186;49.866;7.986;2023-09-12T03:33:49;99743.03;;;19.02;100.00
4346;BME280;2186;49.866;7.986;2023-09-12T03:36:17;99735.50;;;19.07;100.00
4346;BME280;2186;49.866;7.986;2023-09-12T03:38:46;99741.94;;;19.05;100.00
4346;BME280;2186;49.866;7.986;2023-09-12T03:41:13;99748.31;;;19.04;100.00
4346;BME280;2186;49.866;7.986;2023-09-12T03:43:39;99746.16;;;19.09;100.00
4346;BME280;2186;49.866;7.986;2023-09-12T03:46:05;99742.41;;;18.99;100.00
4346;BME280;2186;49.866;7.986;2023-09-12T03:48:33;99741.03;;;18.93;100.00
4346;BME280;2186;49.866;7.986;2023-09-12T03:51:00;99747.28;;;18.93;100.00
4346;BME280;2186;49.866;7.986;2023-09-12T03:53:27;99755.31;;;19.19;100.00
4346;BME280;2186;49.866;7.986;2023-09-12T03:55:54;99755.94;;;19.22;100.00
4346;BME280;2186;49.866;7.986;2023-09-12T03:58:21;99751.53;;;19.21;100.00
4346;BME280;2186;49.866;7.986;2023-09-12T04:00:48;99755.63;;;19.14;100.00
4346;BME280;2186;49.866;7.986;2023-09-12T04:03:14;99752.31;;;19.11;100.00
4346;BME280;2186;49.866;7.986;2023-09-12T04:05:42;99754.88;;;19.12;100.00
4346;BME280;2186;49.866;7.986;2023-09-12T04:08:09;99759.53;;;19.10;100.00
4346;BME280;2186;49.866;7.986;2023-09-12T04:10:35;99759.28;;;19.13;100.00
4346;BME280;2186;49.866;7.986;2023-09-12T04:13:02;99760.34;;;19.23;100.00
4346;BME280;2186;49.866;7.986;2023-09-12T04:15:28;99756.59;;;19.13;100.00
4346;BME280;2186;49.866;7.986;2023-09-12T04:17:54;99755.84;;;19.11;100.00
4346;BME280;2186;49.866;7.986;2023-09-12T04:20:21;99755.34;;;19.06;100.00
4346;BME280;2186;49.866;7.986;2023-09-12T04:22:47;99754.88;;;19.12;100.00
4346;BME280;2186;49.866;7.986;2023-09-12T04:25:14;99755.84;;;19.11;100.00
4346;BME280;2186;49.866;7.986;2023-09-12T04:27:41;99753.41;;;18.96;100.00
4346;BME280;2186;49.866;7.986;2023-09-12T04:30:08;99764.50;;;18.91;100.00
4346;BME280;2186;49.866;7.986;2023-09-12T04:32:35;99754.50;;;18.93;100.00
4346;BME280;2186;49.866;7.986;2023-09-12T04:35:01;99749.03;;;19.18;100.00
4346;BME280;2186;49.866;7.986;2023-09-12T04:37:29;99753.13;;;19.24;100.00
4346;BME280;2186;49.866;7.986;2023-09-12T04:39:55;99760.44;;;19.35;100.00
4346;BME280;2186;49.866;7.986;2023-09-12T04:42:23;99762.44;;;19.44;100.00
4346;BME280;2186;49.866;7.986;2023-09-12T04:44:49;99755.56;;;19.40;100.00
4346;BME280;2186;49.866;7.986;2023-09-12T04:47:16;99755.03;;;19.35;100.00
4346;BME280;2186;49.866;7.986;2023-09-12T04:49:43;99757.00;;;19.33;100.00
4346;BME280;2186;49.866;7.986;2023-09-12T04:52:09;99753.97;;;19.37;100.00
4346;BME280;2186;49.866;7.986;2023-09-12T04:54:36;99755.78;;;19.37;100.00
4346;BME280;2186;49.866;7.986;2023-09-12T04:57:03;99756.47;;;19.15;100.00
4346;BME280;2186;49.866;7.986;2023-09-12T04:59:29;99753.69;;;19.04;100.00
4346;BME280;2186;49.866;7.986;2023-09-12T05:01:56;99758.00;;;19.19;100.00
4346;BME280;2186;49.866;7.986;2023-09-12T05:04:22;99751.97;;;19.03;100.00
4346;BME280;2186;49.866;7.986;2023-09-12T05:06:48;99747.56;;;19.02;100.00
4346;BME280;2186;49.866;7.986;2023-09-12T05:09:15;99746.09;;;18.85;100.00
4346;BME280;2186;49.866;7.986;2023-09-12T05:11:42;99739.25;;;19.05;100.00
4346;BME280;2186;49.866;7.986;2023-09-12T05:14:09;99739.47;;;19.02;100.00
4346;BME280;2186;49.866;7.986;2023-09-12T05:16:35;99728.69;;;19.14;100.00
4346;BME280;2186;49.866;7.986;2023-09-12T05:19:02;99724.84;;;19.30;100.00
4346;BME280;2186;49.866;7.986;2023-09-12T05:21:30;99726.13;;;19.37;100.00
4346;BME280;2186;49.866;7.986;2023-09-12T05:23:56;99720.28;;;19.43;100.00
4346;BME280;2186;49.866;7.986;2023-09-12T05:26:23;99728.59;;;19.40;100.00
4346;BME280;2186;49.866;7.986;2023-09-12T05:28:49;99733.53;;;19.46;100.00
4346;BME280;2186;49.866;7.986;2023-09-12T05:31:16;99743.25;;;19.48;100.00
4346;BME280;2186;49.866;7.986;2023-09-12T05:33:42;99745.19;;;19.46;100.00
4346;BME280;2186;49.866;7.986;2023-09-12T05:36:09;99750.47;;;19.48;100.00
4346;BME280;2186;49.866;7.986;2023-09-12T05:38:35;99744.84;;;19.51;100.00
4346;BME280;2186;49.866;7.986;2023-09-12T05:41:02;99741.19;;;19.52;100.00
4346;BME280;2186;49.866;7.986;2023-09-12T05:43:28;99746.44;;;19.53;100.00
4346;BME280;2186;49.866;7.986;2023-09-12T05:45:55;99743.44;;;19.58;100.00
4346;BME280;2186;49.866;7.986;2023-09-12T05:48:23;99751.53;;;19.58;100.00
4346;BME280;2186;49.866;7.986;2023-09-12T05:50:50;99754.88;;;19.49;100.00
4346;BME280;2186;49.866;7.986;2023-09-12T05:53:16;99752.81;;;19.52;100.00
4346;BME280;2186;49.866;7.986;2023-09-12T05:55:43;99762.53;;;19.55;100.00
4346;BME280;2186;49.866;7.986;2023-09-12T05:58:09;99772.72;;;19.39;100.00
4346;BME280;2186;49.866;7.986;2023-09-12T06:00:35;99777.13;;;19.40;100.00
4346;BME280;2186;49.866;7.986;2023-09-12T06:03:02;99776.22;;;19.52;100.00
4346;BME280;2186;49.866;7.986;2023-09-12T06:05:29;99787.13;;;19.63;100.00
4346;BME280;2186;49.866;7.986;2023-09-12T06:07:55;99779.03;;;19.63;100.00
4346;BME280;2186;49.866;7.986;2023-09-12T06:10:22;99786.03;;;19.66;100.00
4346;BME280;2186;49.866;7.986;2023-09-12T06:12:48;99798.78;;;19.88;100.00
4346;BME280;2186;49.866;7.986;2023-09-12T06:15:16;99792.97;;;20.05;100.00
4346;BME280;2186;49.866;7.986;2023-09-12T06:17:42;99797.75;;;20.36;99.05
4346;BME280;2186;49.866;7.986;2023-09-12T06:20:10;99794.38;;;20.22;98.26
4346;BME280;2186;49.866;7.986;2023-09-12T06:22:37;99800.91;;;20.30;97.83
4346;BME280;2186;49.866;7.986;2023-09-12T06:25:03;99798.34;;;20.29;98.43
4346;BME280;2186;49.866;7.986;2023-09-12T06:27:30;99797.94;;;20.22;98.48
4346;BME280;2186;49.866;7.986;2023-09-12T06:29:58;99791.34;;;20.37;98.28
4346;BME280;2186;49.866;7.986;2023-09-12T06:32:24;99788.84;;;20.47;97.66
4346;BME280;2186;49.866;7.986;2023-09-12T06:34:51;99784.59;;;20.32;98.25
4346;BME280;2186;49.866;7.986;2023-09-12T06:37:17;99783.63;;;20.33;98.25
4346;BME280;2186;49.866;7.986;2023-09-12T06:39:44;99782.28;;;20.38;98.55
4346;BME280;2186;49.866;7.986;2023-09-12T06:42:11;99787.53;;;20.64;97.64
4346;BME280;2186;49.866;7.986;2023-09-12T06:44:37;99794.16;;;20.60;97.49
4346;BME280;2186;49.866;7.986;2023-09-12T06:47:04;99789.75;;;20.70;96.58
4346;BME280;2186;49.866;7.986;2023-09-12T06:49:31;99788.78;;;21.05;95.73
4346;BME280;2186;49.866;7.986;2023-09-12T06:52:01;99795.44;;;21.12;95.34
4346;BME280;2186;49.866;7.986;2023-09-12T06:54:27;99797.50;;;21.08;95.37
4346;BME280;2186;49.866;7.986;2023-09-12T06:56:53;99801.56;;;21.03;95.44
4346;BME280;2186;49.866;7.986;2023-09-12T06:59:20;99785.59;;;21.22;95.33
4346;BME280;2186;49.866;7.986;2023-09-12T07:01:46;99789.69;;;21.27;95.04
4346;BME280;2186;49.866;7.986;2023-09-12T07:04:13;99793.84;;;21.32;94.80
4346;BME280;2186;49.866;7.986;2023-09-12T07:06:39;99801.94;;;21.54;94.25
4346;BME280;2186;49.866;7.986;2023-09-12T07:09:06;99803.16;;;21.61;93.38
4346;BME280;2186;49.866;7.986;2023-09-12T07:11:35;99801.94;;;21.54;94.29
4346;BME280;2186;49.866;7.986;2023-09-12T07:14:01;99789.66;;;21.50;94.30
4346;BME280;2186;49.866;7.986;2023-09-12T07:16:31;99795.28;;;21.69;93.82
4346;BME280;2186;49.866;7.986;2023-09-12T07:18:58;99787.72;;;21.84;93.69
4346;BME280;2186;49.866;7.986;2023-09-12T07:21:24;99784.31;;;21.82;92.29
4346;BME280;2186;49.866;7.986;2023-09-12T07:23:51;99788.78;;;21.93;92.29
4346;BME280;2186;49.866;7.986;2023-09-12T07:26:17;99777.81;;;22.37;91.19
4346;BME280;2186;49.866;7.986;2023-09-12T07:28:45;99782.25;;;22.38;91.09
4346;BME280;2186;49.866;7.986;2023-09-12T07:31:12;99780.72;;;22.66;90.13
4346;BME280;2186;49.866;7.986;2023-09-12T07:33:38;99788.03;;;22.34;90.96
4346;BME280;2186;49.866;7.986;2023-09-12T07:36:05;99793.66;;;22.21;91.52
4346;BME280;2186;49.866;7.986;2023-09-12T07:38:32;99798.69;;;22.67;90.49
4346;BME280;2186;49.866;7.986;2023-09-12T07:40:58;99797.91;;;22.76;89.69
4346;BME280;2186;49.866;7.986;2023-09-12T07:43:26;99796.59;;;22.92;90.17
4346;BME280;2186;49.866;7.986;2023-09-12T07:45:56;99802.06;;;22.81;89.26
4346;BME280;2186;49.866;7.986;2023-09-12T07:48:24;99800.59;;;22.56;90.28
4346;BME280;2186;49.866;7.986;2023-09-12T07:50:50;99805.72;;;22.91;89.79
4346;BME280;2186;49.866;7.986;2023-09-12T07:53:17;99799.53;;;23.10;88.54
4346;BME280;2186;49.866;7.986;2023-09-12T07:55:44;99800.06;;;23.34;87.49
4346;BME280;2186;49.866;7.986;2023-09-12T07:58:16;99806.06;;;23.38;87.51
4346;BME280;2186;49.866;7.986;2023-09-12T08:00:46;99798.59;;;23.70;86.34
4346;BME280;2186;49.866;7.986;2023-09-12T08:03:12;99803.53;;;23.46;87.32
4346;BME280;2186;49.866;7.986;2023-09-12T08:05:39;99809.34;;;23.81;86.60
4346;BME280;2186;49.866;7.986;2023-09-12T08:08:06;99802.84;;;24.13;85.69
4346;BME280;2186;49.866;7.986;2023-09-12T08:10:32;99801.13;;;24.31;84.77
4346;BME280;2186;49.866;7.986;2023-09-12T08:12:59;99797.25;;;24.14;85.74
4346;BME280;2186;49.866;7.986;2023-09-12T08:15:26;99799.53;;;24.00;85.82
4346;BME280;2186;49.866;7.986;2023-09-12T08:17:54;99796.78;;;23.80;86.48
4346;BME280;2186;49.866;7.986;2023-09-12T08:20:21;99789.22;;;23.93;86.27
4346;BME280;2186;49.866;7.986;2023-09-12T08:22:47;99785.09;;;23.89;86.45
4346;BME280;2186;49.866;7.986;2023-09-12T08:25:15;99785.22;;;23.98;86.61
4346;BME280;2186;49.866;7.986;2023-09-12T08:27:41;99785.69;;;24.41;85.19
4346;BME280;2186;49.866;7.986;2023-09-12T08:30:11;99791.63;;;24.74;84.49
4346;BME280;2186;49.866;7.986;2023-09-12T08:32:40;99792.66;;;24.73;84.59
4346;BME280;2186;49.866;7.986;2023-09-12T08:35:10;99802.47;;;25.03;83.50
4346;BME280;2186;49.866;7.986;2023-09-12T08:37:40;99806.06;;;24.84;84.76
4346;BME280;2186;49.866;7.986;2023-09-12T08:40:10;99808.63;;;25.05;84.17
4346;BME280;2186;49.866;7.986;2023-09-12T08:42:42;99815.75;;;25.06;82.37
4346;BME280;2186;49.866;7.986;2023-09-12T08:45:14;99804.94;;;24.77;82.74
4346;BME280;2186;49.866;7.986;2023-09-12T08:47:43;99813.47;;;24.92;81.33
4346;BME280;2186;49.866;7.986;2023-09-12T08:50:14;99815.78;;;24.87;81.54
4346;BME280;2186;49.866;7.986;2023-09-12T08:52:41;99823.56;;;24.72;81.23
4346;BME280;2186;49.866;7.986;2023-09-12T08:55:25;99826.16;;;25.20;80.75
4346;BME280;2186;49.866;7.986;2023-09-12T08:57:53;99816.44;;;25.55;79.31
4346;BME280;2186;49.866;7.986;2023-09-12T09:00:22;99816.06;;;25.67;78.26
4346;BME280;2186;49.866;7.986;2023-09-12T09:02:50;99815.38;;;25.38;78.73
4346;BME280;2186;49.866;7.986;2023-09-12T09:05:17;99817.09;;;25.94;76.64
4346;BME280;2186;49.866;7.986;2023-09-12T09:07:48;99819.16;;;25.82;74.69
4346;BME280;2186;49.866;7.986;2023-09-12T09:10:17;99813.41;;;26.03;74.59
4346;BME280;2186;49.866;7.986;2023-09-12T09:12:50;99812.81;;;26.09;75.46
4346;BME280;2186;49.866;7.986;2023-09-12T09:15:27;99814.00;;;26.24;74.79
4346;BME280;2186;49.866;7.986;2023-09-12T09:17:57;99807.91;;;26.31;73.64
4346;BME280;2186;49.866;7.986;2023-09-12T09:25:24;99800.66;;;26.57;72.13
4346;BME280;2186;49.866;7.986;2023-09-12T09:27:50;99796.69;;;26.16;72.27
4346;BME280;2186;49.866;7.986;2023-09-12T09:30:16;99802.44;;;26.31;71.30
4346;BME280;2186;49.866;7.986;2023-09-12T09:32:45;99796.34;;;26.46;70.86
4346;BME280;2186;49.866;7.986;2023-09-12T09:35:11;99791.63;;;26.74;70.73
4346;BME280;2186;49.866;7.986;2023-09-12T09:37:38;99803.09;;;26.86;71.44
4346;BME280;2186;49.866;7.986;2023-09-12T09:40:08;99796.34;;;26.98;69.96
4346;BME280;2186;49.866;7.986;2023-09-12T09:42:37;99794.72;;;27.31;69.27
4346;BME280;2186;49.866;7.986;2023-09-12T09:45:04;99800.25;;;26.70;71.61
4346;BME280;2186;49.866;7.986;2023-09-12T09:47:32;99796.44;;;27.06;70.30
4346;BME280;2186;49.866;7.986;2023-09-12T09:49:58;99796.78;;;27.37;69.39
4346;BME280;2186;49.866;7.986;2023-09-12T09:52:26;99788.91;;;26.82;70.48
4346;BME280;2186;49.866;7.986;2023-09-12T09:54:55;99785.13;;;26.75;70.43
4346;BME280;2186;49.866;7.986;2023-09-12T09:57:25;99785.88;;;26.85;71.22
4346;BME280;2186;49.866;7.986;2023-09-12T09:59:52;99787.03;;;27.35;68.65
4346;BME280;2186;49.866;7.986;2023-09-12T10:02:21;99787.72;;;27.71;69.30
4346;BME280;2186;49.866;7.986;2023-09-12T10:04:53;99786.81;;;27.62;68.04
4346;BME280;2186;49.866;7.986;2023-09-12T10:07:23;99779.25;;;27.48;69.28
4346;BME280;2186;49.866;7.986;2023-09-12T10:09:49;99772.88;;;27.73;68.74
4346;BME280;2186;49.866;7.986;2023-09-12T10:12:16;99765.19;;;27.69;67.55
4346;BME280;2186;49.866;7.986;2023-09-12T10:14:43;99765.41;;;27.84;67.59
4346;BME280;2186;49.866;7.986;2023-09-12T10:17:12;99763.94;;;27.63;67.00
4346;BME280;2186;49.866;7.986;2023-09-12T10:19:51;99762.63;;;27.33;67.96
4346;BME280;2186;49.866;7.986;2023-09-12T10:22:24;99776.13;;;27.35;67.49
4346;BME280;2186;49.866;7.986;2023-09-12T10:24:52;99781.28;;;27.46;68.00
4346;BME280;2186;49.866;7.986;2023-09-12T10:27:20;99777.72;;;27.45;67.37
4346;BME280;2186;49.866;7.986;2023-09-12T10:29:48;99779.00;;;27.67;67.52
4346;BME280;2186;49.866;7.986;2023-09-12T10:32:19;99776.84;;;27.87;66.64
4346;BME280;2186;49.866;7.986;2023-09-12T10:34:48;99782.81;;;27.83;66.26
4346;BME280;2186;49.866;7.986;2023-09-12T10:37:15;99792.22;;;27.88;66.44
4346;BME280;2186;49.866;7.986;2023-09-12T10:39:43;99789.16;;;27.99;68.31
4346;BME280;2186;49.866;7.986;2023-09-12T10:42:10;99769.72;;;27.60;66.41
4346;BME280;2186;49.866;7.986;2023-09-12T10:44:38;99769.81;;;27.77;67.22
4346;BME280;2186;49.866;7.986;2023-09-12T10:47:05;99763.16;;;27.79;66.04
4346;BME280;2186;49.866;7.986;2023-09-12T10:49:32;99757.22;;;28.08;64.83
4346;BME280;2186;49.866;7.986;2023-09-12T10:51:59;99755.34;;;28.17;64.70
4346;BME280;2186;49.866;7.986;2023-09-12T10:54:36;99752.44;;;28.02;65.15
4346;BME280;2186;49.866;7.986;2023-09-12T10:57:08;99758.25;;;28.15;64.37
4346;BME280;2186;49.866;7.986;2023-09-12T11:02:38;99757.44;;;28.55;62.86
4346;BME280;2186;49.866;7.986;2023-09-12T11:07:59;99766.13;;;28.83;62.46
4346;BME280;2186;49.866;7.986;2023-09-12T11:10:26;99756.84;;;29.09;62.45
4346;BME280;2186;49.866;7.986;2023-09-12T11:12:55;99760.63;;;29.08;62.61
4346;BME280;2186;49.866;7.986;2023-09-12T11:15:25;99759.75;;;29.55;61.24
4346;BME280;2186;49.866;7.986;2023-09-12T11:18:05;99754.72;;;29.74;60.29
4346;BME280;2186;49.866;7.986;2023-09-12T11:20:51;99755.09;;;29.24;60.73
4346;BME280;2186;49.866;7.986;2023-09-12T11:23:19;99756.28;;;29.22;61.86
4346;BME280;2186;49.866;7.986;2023-09-12T11:25:46;99761.41;;;29.25;62.21
4346;BME280;2186;49.866;7.986;2023-09-12T11:28:12;99757.06;;;29.38;62.34
4346;BME280;2186;49.866;7.986;2023-09-12T11:30:55;99757.50;;;29.58;61.88
4346;BME280;2186;49.866;7.986;2023-09-12T11:33:26;99751.59;;;29.38;60.73
4346;BME280;2186;49.866;7.986;2023-09-12T11:35:54;99748.00;;;29.77;60.94
4346;BME280;2186;49.866;7.986;2023-09-12T11:38:31;99750.19;;;29.82;59.92
4346;BME280;2186;49.866;7.986;2023-09-12T11:40:59;99759.41;;;29.89;61.15
4346;BME280;2186;49.866;7.986;2023-09-12T11:43:27;99747.78;;;29.56;62.22
4346;BME280;2186;49.866;7.986;2023-09-12T11:45:55;99745.84;;;29.64;60.32
4346;BME280;2186;49.866;7.986;2023-09-12T11:48:22;99747.16;;;29.76;59.16
4346;BME280;2186;49.866;7.986;2023-09-12T11:50:51;99744.84;;;29.57;58.00
4346;BME280;2186;49.866;7.986;2023-09-12T11:53:20;99733.63;;;30.06;58.26
4346;BME280;2186;49.866;7.986;2023-09-12T11:55:50;99729.13;;;29.82;57.43
4346;BME280;2186;49.866;7.986;2023-09-12T11:58:20;99728.41;;;29.57;58.47
4346;BME280;2186;49.866;7.986;2023-09-12T12:00:50;99728.13;;;30.06;58.85
4346;BME280;2186;49.866;7.986;2023-09-12T12:03:18;99727.38;;;30.35;57.65
4346;BME280;2186;49.866;7.986;2023-09-12T12:05:46;99729.69;;;30.23;56.82
4346;BME280;2186;49.866;7.986;2023-09-12T12:08:15;99729.09;;;30.13;55.82
4346;BME280;2186;49.866;7.986;2023-09-12T12:10:57;99728.22;;;29.90;57.87
4346;BME280;2186;49.866;7.986;2023-09-12T12:13:27;99722.34;;;29.70;58.27
4346;BME280;2186;49.866;7.986;2023-09-12T12:15:55;99728.00;;;29.68;58.12
4346;BME280;2186;49.866;7.986;2023-09-12T12:18:23;99729.59;;;30.17;58.40
4346;BME280;2186;49.866;7.986;2023-09-12T12:20:49;99728.78;;;30.08;57.65
4346;BME280;2186;49.866;7.986;2023-09-12T12:23:16;99721.44;;;30.00;58.75
4346;BME280;2186;49.866;7.986;2023-09-12T12:25:42;99719.47;;;30.17;57.92
4346;BME280;2186;49.866;7.986;2023-09-12T12:28:09;99717.63;;;30.32;57.50
4346;BME280;2186;49.866;7.986;2023-09-12T12:30:36;99720.19;;;30.11;58.87
4346;BME280;2186;49.866;7.986;2023-09-12T12:33:08;99722.28;;;30.09;58.43
4346;BME280;2186;49.866;7.986;2023-09-12T12:36:02;99712.97;;;29.64;58.27
4346;BME280;2186;49.866;7.986;2023-09-12T12:38:37;99714.06;;;30.01;59.03
4346;BME280;2186;49.866;7.986;2023-09-12T12:41:23;99707.94;;;30.22;57.52
4346;BME280;2186;49.866;7.986;2023-09-12T12:43:50;99711.03;;;30.56;56.77
4346;BME280;2186;49.866;7.986;2023-09-12T12:46:28;99713.16;;;30.69;57.05
4346;BME280;2186;49.866;7.986;2023-09-12T12:48:55;99708.97;;;30.44;57.47
4346;BME280;2186;49.866;7.986;2023-09-12T12:51:25;99712.06;;;30.41;56.86
4346;BME280;2186;49.866;7.986;2023-09-12T12:53:54;99711.63;;;30.29;56.17
4346;BME280;2186;49.866;7.986;2023-09-12T12:56:23;99704.44;;;30.28;55.73
4346;BME280;2186;49.866;7.986;2023-09-12T12:58:51;99706.69;;;30.10;54.55
4346;BME280;2186;49.866;7.986;2023-09-12T13:01:18;99708.75;;;30.07;55.19
4346;BME280;2186;49.866;7.986;2023-09-12T13:03:45;99689.00;;;30.12;55.07
4346;BME280;2186;49.866;7.986;2023-09-12T13:06:13;99695.38;;;30.04;56.25
4346;BME280;2186;49.866;7.986;2023-09-12T13:08:41;99688.81;;;30.51;55.46
4346;BME280;2186;49.866;7.986;2023-09-12T13:11:12;99691.41;;;30.67;55.80
4346;BME280;2186;49.866;7.986;2023-09-12T13:13:43;99685.78;;;30.46;55.57
4346;BME280;2186;49.866;7.986;2023-09-12T13:16:12;99686.59;;;30.84;54.76
4346;BME280;2186;49.866;7.986;2023-09-12T13:18:40;99676.09;;;30.73;54.62
4346;BME280;2186;49.866;7.986;2023-09-12T13:21:07;99677.25;;;30.56;55.41
4346;BME280;2186;49.866;7.986;2023-09-12T13:23:35;99676.56;;;30.24;54.69
4346;BME280;2186;49.866;7.986;2023-09-12T13:26:02;99676.31;;;30.49;53.76
4346;BME280;2186;49.866;7.986;2023-09-12T13:28:29;99667.91;;;30.50;53.79
4346;BME280;2186;49.866;7.986;2023-09-12T13:30:56;99667.81;;;30.44;52.63
4346;BME280;2186;49.866;7.986;2023-09-12T13:33:24;99663.38;;;30.57;53.96
4346;BME280;2186;49.866;7.986;2023-09-12T13:35:50;99652.94;;;30.38;53.49